Time;durP1;ratioP1;P1;durP2;ratioP2;P2;SDS_P1;SDS_P2;PMS_P1;PMS_P2;Temp;Humidity;BMP_temperature;BMP_pressure;BME280_temperature;BME280_humidity;BME280_pressure;Samples;Min_cycle;Max_cycle;Signal;HPM_P1;HPM_P2
2023/12/05 00:01:32;;;;;;;12.17;10.00;;;;;;;3.43;66.85;95327.94;5003310;28;20296;-71
2023/12/05 00:04:01;;;;;;;12.53;9.90;;;;;;;3.63;65.96;95324.00;5007346;28;20223;-70
2023/12/05 00:06:26;;;;;;;10.83;9.00;;;;;;;3.52;66.23;95316.09;5001361;28;20227;-70
2023/12/05 00:08:52;;;;;;;10.93;9.33;;;;;;;3.56;66.39;95324.56;5004414;28;20321;-70
2023/12/05 00:11:17;;;;;;;12.83;9.67;;;;;;;3.65;65.97;95322.16;5009274;28;20186;-70
2023/12/05 00:13:43;;;;;;;12.43;9.80;;;;;;;3.60;66.18;95333.78;5008131;28;20226;-71
2023/12/05 00:16:09;;;;;;;13.67;9.90;;;;;;;3.49;66.40;95326.72;5009642;28;20314;-70
2023/12/05 00:18:36;;;;;;;12.63;10.10;;;;;;;3.69;66.39;95318.44;5003926;28;20227;-70
2023/12/05 00:21:02;;;;;;;11.90;8.87;;;;;;;3.64;66.22;95330.06;5002209;28;20234;-70
2023/12/05 00:23:27;;;;;;;11.97;10.00;;;;;;;3.74;65.69;95338.91;5003770;28;20187;-70
2023/12/05 00:25:53;;;;;;;9.70;8.70;;;;;;;3.70;65.92;95338.28;5008486;28;20227;-70
2023/12/05 00:28:18;;;;;;;10.77;9.33;;;;;;;3.62;66.27;95337.13;4996808;28;20224;-70
2023/12/05 00:30:43;;;;;;;10.17;8.83;;;;;;;3.51;66.53;95335.25;5004789;28;20223;-71
2023/12/05 00:33:09;;;;;;;9.97;8.17;;;;;;;3.56;66.20;95337.56;5004703;28;20222;-71
2023/12/05 00:35:34;;;;;;;8.87;7.70;;;;;;;3.65;66.07;95329.94;5005463;28;20210;-71
2023/12/05 00:38:00;;;;;;;8.17;6.80;;;;;;;3.64;65.67;95340.47;5001991;28;20263;-72
2023/12/05 00:40:29;;;;;;;9.90;7.63;;;;;;;3.63;65.68;95339.63;5002180;28;20245;-72
2023/12/05 00:42:55;;;;;;;7.97;7.17;;;;;;;3.78;65.21;95345.56;4999747;28;20223;-71
2023/12/05 00:45:22;;;;;;;7.20;6.50;;;;;;;3.72;65.21;95340.78;5005234;28;20219;-72
2023/12/05 00:47:48;;;;;;;8.03;6.77;;;;;;;3.71;65.56;95346.91;4996914;28;20194;-72
2023/12/05 00:50:13;;;;;;;7.53;5.97;;;;;;;3.63;65.36;95329.22;5003095;28;20195;-72
2023/12/05 00:52:38;;;;;;;7.77;7.00;;;;;;;3.58;65.70;95333.88;4999116;28;20255;-72
2023/12/05 00:55:04;;;;;;;6.77;6.13;;;;;;;3.58;65.74;95327.84;5001393;28;20219;-72
2023/12/05 00:57:30;;;;;;;7.27;6.57;;;;;;;3.50;65.62;95331.81;5008398;28;20235;-71
2023/12/05 00:59:56;;;;;;;7.40;6.50;;;;;;;3.50;65.60;95325.75;5002832;28;20227;-71
2023/12/05 01:02:21;;;;;;;7.63;6.20;;;;;;;3.45;65.54;95320.88;5008776;28;20178;-71
2023/12/05 01:04:47;;;;;;;7.37;6.27;;;;;;;3.52;65.06;95322.13;5005029;28;20227;-71
2023/12/05 01:07:12;;;;;;;9.20;6.90;;;;;;;3.59;64.48;95332.13;5002704;28;20215;-70
2023/12/05 01:09:41;;;;;;;6.73;5.93;;;;;;;3.51;63.84;95330.88;5001108;28;20227;-71
2023/12/05 01:12:13;;;;;;;7.00;6.00;;;;;;;3.62;63.81;95326.72;5009095;28;20230;-70
2023/12/05 01:14:38;;;;;;;8.00;5.73;;;;;;;3.67;63.04;95320.28;5000301;28;20195;-71
2023/12/05 01:17:04;;;;;;;6.93;5.83;;;;;;;3.65;63.20;95316.13;5003600;28;20179;-71
2023/12/05 01:19:30;;;;;;;7.70;6.07;;;;;;;3.63;62.69;95302.38;5000673;28;20227;-71
2023/12/05 01:21:56;;;;;;;6.87;5.63;;;;;;;3.52;62.64;95300.50;5005397;28;20284;-70
2023/12/05 01:24:21;;;;;;;7.43;5.07;;;;;;;3.50;62.44;95297.16;5007293;28;20227;-70
2023/12/05 01:26:47;;;;;;;7.37;5.27;;;;;;;3.66;61.53;95291.78;5004867;28;20273;-70
2023/12/05 01:29:12;;;;;;;8.23;5.20;;;;;;;3.49;61.72;95296.34;5005395;28;20187;-70
2023/12/05 01:31:37;;;;;;;6.50;5.00;;;;;;;3.63;61.15;95286.78;5002084;28;20215;-71
2023/12/05 01:34:03;;;;;;;7.13;5.47;;;;;;;3.55;60.68;95287.28;5009080;28;20305;-71
2023/12/05 01:36:30;;;;;;;7.40;5.87;;;;;;;3.62;60.38;95277.31;5010459;28;20223;-71
2023/12/05 01:38:56;;;;;;;7.67;5.53;;;;;;;3.50;61.13;95276.38;5007658;28;20231;-71
2023/12/05 01:41:21;;;;;;;7.80;6.23;;;;;;;3.49;60.93;95272.94;5000641;28;20207;-71
2023/12/05 01:43:47;;;;;;;7.53;5.20;;;;;;;3.50;60.56;95272.03;5009659;28;20253;-71
2023/12/05 01:46:13;;;;;;;7.77;5.90;;;;;;;3.35;61.52;95274.81;5002824;28;20299;-70
2023/12/05 01:48:39;;;;;;;6.83;5.27;;;;;;;3.39;61.22;95266.69;5004277;28;20222;-70
2023/12/05 01:51:08;;;;;;;7.13;5.93;;;;;;;3.33;61.15;95261.06;5005765;28;20245;-71
2023/12/05 01:53:35;;;;;;;9.67;6.27;;;;;;;3.39;61.07;95278.84;5009711;28;20194;-71
2023/12/05 01:56:03;;;;;;;6.50;5.53;;;;;;;3.21;61.34;95260.13;5001855;28;20290;-70
2023/12/05 01:58:31;;;;;;;7.73;6.30;;;;;;;3.16;61.78;95257.00;5004707;28;20226;-70
2023/12/05 02:00:56;;;;;;;7.40;6.53;;;;;;;3.24;61.58;95260.75;5003154;28;20231;-70
2023/12/05 02:03:22;;;;;;;9.20;6.50;;;;;;;3.37;60.95;95252.13;5006143;28;20214;-70
2023/12/05 02:05:47;;;;;;;6.80;5.47;;;;;;;3.41;60.78;95266.59;5000725;28;20198;-70
2023/12/05 02:08:18;;;;;;;6.87;5.20;;;;;;;3.42;60.83;95263.03;5005144;28;20206;-70
2023/12/05 02:10:43;;;;;;;6.77;5.70;;;;;;;3.45;60.25;95253.28;5016155;28;20220;-71
2023/12/05 02:13:09;;;;;;;6.90;5.50;;;;;;;3.44;60.42;95246.41;5006697;28;20276;-75
2023/12/05 02:15:35;;;;;;;7.57;6.20;;;;;;;3.38;60.67;95252.03;5010490;28;20223;-71
2023/12/05 02:18:14;;;;;;;7.97;5.83;;;;;;;3.31;61.25;95255.97;5002764;28;20231;-73
2023/12/05 02:20:49;;;;;;;7.30;5.80;;;;;;;3.42;60.90;95248.31;4999882;28;20226;-70
2023/12/05 02:23:26;;;;;;;10.37;7.33;;;;;;;3.44;61.59;95249.00;5010339;28;20233;-68
2023/12/05 02:26:13;;;;;;;9.33;7.50;;;;;;;3.33;61.84;95253.28;5005967;28;20229;-70
2023/12/05 02:28:39;;;;;;;8.30;7.37;;;;;;;3.31;61.87;95245.56;4984693;28;20249;-70
2023/12/05 02:31:05;;;;;;;11.03;7.60;;;;;;;3.16;62.35;95238.81;5003638;28;20227;-70
2023/12/05 02:33:31;;;;;;;9.53;7.27;;;;;;;3.00;63.02;95241.56;5012929;28;20250;-70
2023/12/05 02:36:19;;;;;;;7.77;6.87;;;;;;;3.11;62.39;95241.69;5009861;28;20573;-69
2023/12/05 02:38:53;;;;;;;9.47;7.67;;;;;;;3.15;62.51;95224.13;5001422;28;20179;-72
2023/12/05 02:41:21;;;;;;;8.03;7.07;;;;;;;3.19;62.50;95231.63;5019565;28;20221;-72
2023/12/05 02:43:52;;;;;;;8.90;7.60;;;;;;;3.34;61.87;95219.38;5012552;28;20258;-73
2023/12/05 02:46:19;;;;;;;11.87;7.57;;;;;;;3.39;61.39;95209.50;5009009;28;20238;-73
2023/12/05 02:48:45;;;;;;;9.87;7.17;;;;;;;3.19;61.83;95205.66;5008665;28;20226;-72
2023/12/05 02:51:11;;;;;;;8.70;6.70;;;;;;;3.30;61.60;95195.34;5012562;28;20240;-72
2023/12/05 02:53:37;;;;;;;7.83;6.70;;;;;;;3.37;61.44;95207.94;5004296;28;20240;-72
2023/12/05 02:56:03;;;;;;;8.37;6.67;;;;;;;3.33;61.46;95199.53;5008938;28;20186;-69
2023/12/05 02:58:29;;;;;;;17.70;7.97;;;;;;;3.24;61.74;95187.97;5010525;28;20226;-69
2023/12/05 03:00:54;;;;;;;9.83;7.30;;;;;;;2.97;62.67;95187.22;5003842;28;20226;-69
2023/12/05 03:03:20;;;;;;;8.33;6.90;;;;;;;3.23;62.07;95180.28;4996741;28;20314;-68
2023/12/05 03:05:45;;;;;;;9.43;7.40;;;;;;;3.09;62.20;95187.22;5004399;28;20282;-68
2023/12/05 03:08:10;;;;;;;9.17;6.77;;;;;;;3.16;62.11;95190.25;5000911;28;20195;-68
2023/12/05 03:10:36;;;;;;;9.97;7.87;;;;;;;3.25;61.78;95189.63;5010814;28;20227;-69
2023/12/05 03:13:01;;;;;;;9.13;7.50;;;;;;;3.30;61.65;95192.75;5006871;28;20218;-69
2023/12/05 03:15:27;;;;;;;9.20;8.13;;;;;;;3.25;61.84;95199.19;5008922;28;20227;-68
2023/12/05 03:17:52;;;;;;;9.50;7.70;;;;;;;3.22;61.89;95200.25;5005793;28;20179;-68
2023/12/05 03:20:18;;;;;;;10.13;8.37;;;;;;;3.15;62.26;95203.34;5012223;28;20195;-68
2023/12/05 03:22:43;;;;;;;11.37;9.00;;;;;;;3.25;62.08;95188.81;5004468;28;20223;-69
2023/12/05 03:25:08;;;;;;;10.30;8.20;;;;;;;3.19;62.14;95195.25;5009129;28;20302;-68
2023/12/05 03:27:35;;;;;;;9.50;8.40;;;;;;;3.25;61.76;95187.03;5007310;28;20300;-68
2023/12/05 03:30:00;;;;;;;12.03;8.30;;;;;;;3.22;61.48;95176.03;5012723;28;20226;-68
2023/12/05 03:32:26;;;;;;;9.90;6.93;;;;;;;3.25;61.35;95186.22;5000590;28;20198;-69
2023/12/05 03:34:51;;;;;;;8.60;7.03;;;;;;;3.18;61.41;95193.59;5009900;28;20757;-68
2023/12/05 03:37:17;;;;;;;8.77;6.80;;;;;;;3.28;61.23;95180.81;5006265;28;20226;-68
2023/12/05 03:39:42;;;;;;;8.57;7.47;;;;;;;3.20;61.57;95188.28;5003696;28;20250;-70
2023/12/05 03:42:08;;;;;;;8.83;7.40;;;;;;;3.26;61.50;95183.53;5012026;28;20272;-69
2023/12/05 03:44:33;;;;;;;7.60;6.73;;;;;;;3.20;61.50;95180.50;5006903;28;20195;-69
2023/12/05 03:46:58;;;;;;;7.77;6.97;;;;;;;3.14;61.71;95181.72;5008892;28;20239;-69
2023/12/05 03:49:24;;;;;;;10.33;7.03;;;;;;;3.11;61.39;95181.94;5005752;28;20221;-69
2023/12/05 03:51:49;;;;;;;7.10;6.33;;;;;;;3.08;61.45;95188.16;5000766;28;20274;-69
2023/12/05 03:54:15;;;;;;;7.17;6.47;;;;;;;3.19;60.70;95174.47;5002594;28;20242;-69
2023/12/05 03:56:41;;;;;;;8.33;6.30;;;;;;;3.21;60.63;95180.41;5000605;28;20199;-70
2023/12/05 03:59:06;;;;;;;6.77;6.00;;;;;;;3.26;60.40;95190.47;5009751;28;20195;-71
2023/12/05 04:01:31;;;;;;;7.93;5.53;;;;;;;3.31;60.18;95180.59;5006761;28;20226;-71
2023/12/05 04:03:57;;;;;;;6.40;5.60;;;;;;;3.20;60.54;95183.09;5007494;28;20222;-69
2023/12/05 04:06:23;;;;;;;7.00;5.80;;;;;;;3.19;60.49;95184.03;5001638;28;20223;-70
2023/12/05 04:08:49;;;;;;;6.60;5.23;;;;;;;3.32;59.47;95182.28;5002539;28;20206;-70
2023/12/05 04:11:15;;;;;;;6.40;5.73;;;;;;;3.24;60.02;95184.56;5005006;28;20283;-69
2023/12/05 04:13:41;;;;;;;8.93;5.93;;;;;;;3.28;59.88;95183.41;5003021;28;20307;-69
2023/12/05 04:16:07;;;;;;;6.43;5.50;;;;;;;3.10;59.81;95182.84;5004952;28;20234;-69
2023/12/05 04:18:32;;;;;;;6.80;5.57;;;;;;;3.01;60.47;95186.91;5004546;28;20242;-70
2023/12/05 04:20:58;;;;;;;6.83;5.90;;;;;;;2.73;61.28;95187.06;5003948;28;20231;-69
2023/12/05 04:23:23;;;;;;;7.07;5.70;;;;;;;2.93;61.08;95175.38;5007133;28;20210;-68
2023/12/05 04:25:49;;;;;;;6.87;5.83;;;;;;;3.09;60.63;95179.44;5003772;28;20215;-69
2023/12/05 04:28:14;;;;;;;6.67;5.67;;;;;;;3.11;60.38;95171.56;5008574;28;20318;-69
2023/12/05 04:30:40;;;;;;;8.90;6.80;;;;;;;3.25;59.71;95178.41;5008850;28;20219;-70
2023/12/05 04:33:05;;;;;;;7.00;5.90;;;;;;;3.28;59.58;95173.00;5005940;28;20227;-70
2023/12/05 04:35:31;;;;;;;7.87;6.00;;;;;;;3.20;59.91;95168.31;5009629;28;20215;-70
2023/12/05 04:37:56;;;;;;;7.70;6.43;;;;;;;3.17;60.35;95185.91;5010809;28;20449;-70
2023/12/05 04:40:22;;;;;;;7.70;5.63;;;;;;;3.18;60.13;95191.00;5000078;28;20234;-70
2023/12/05 04:42:47;;;;;;;7.60;6.50;;;;;;;2.78;61.09;95169.41;5006861;28;20279;-70
2023/12/05 04:45:13;;;;;;;8.00;6.90;;;;;;;2.73;61.72;95159.34;5002936;28;20233;-70
2023/12/05 04:47:38;;;;;;;8.40;7.13;;;;;;;2.89;61.56;95172.16;5005470;28;20191;-69
2023/12/05 04:50:05;;;;;;;8.70;7.17;;;;;;;3.01;60.96;95186.09;5006234;28;20286;-69
2023/12/05 04:52:31;;;;;;;6.93;6.23;;;;;;;3.16;60.89;95176.44;5006715;28;20317;-69
2023/12/05 04:54:57;;;;;;;7.97;6.67;;;;;;;3.19;60.40;95184.84;5004838;28;20223;-70
2023/12/05 04:57:22;;;;;;;8.13;6.40;;;;;;;3.04;60.92;95186.69;5001121;28;20270;-71
2023/12/05 04:59:48;;;;;;;7.83;6.20;;;;;;;2.90;61.52;95183.38;5010816;28;20203;-70
2023/12/05 05:02:13;;;;;;;7.53;6.73;;;;;;;2.85;61.66;95183.66;5007889;28;20194;-72
2023/12/05 05:04:39;;;;;;;8.67;6.43;;;;;;;2.93;61.20;95183.16;5005272;28;20281;-72
2023/12/05 05:07:04;;;;;;;9.00;7.80;;;;;;;2.87;61.85;95179.22;4998860;28;20254;-71
2023/12/05 05:09:30;;;;;;;8.63;7.50;;;;;;;2.82;61.93;95182.09;5004481;28;20249;-72
2023/12/05 05:11:56;;;;;;;8.30;7.27;;;;;;;2.95;61.84;95186.50;4996978;28;20281;-72
2023/12/05 05:14:21;;;;;;;13.53;8.87;;;;;;;3.07;61.72;95193.47;4999406;28;20191;-71
2023/12/05 05:16:47;;;;;;;13.97;8.50;;;;;;;3.02;61.64;95187.72;5009630;28;20281;-71
2023/12/05 05:19:12;;;;;;;8.67;7.37;;;;;;;2.99;61.74;95190.53;5005782;28;20226;-73
2023/12/05 05:21:38;;;;;;;8.80;7.90;;;;;;;2.98;61.86;95197.50;5005397;28;20261;-71
2023/12/05 05:24:03;;;;;;;9.07;8.13;;;;;;;2.90;62.25;95209.34;5003922;28;20231;-71
2023/12/05 05:26:29;;;;;;;9.00;7.30;;;;;;;3.01;61.89;95210.28;5003062;28;20248;-71
2023/12/05 05:28:54;;;;;;;9.50;7.97;;;;;;;2.63;63.43;95200.66;4999376;28;20218;-71
2023/12/05 05:31:20;;;;;;;8.90;7.67;;;;;;;2.90;63.11;95183.38;5011708;28;20249;-70
2023/12/05 05:33:45;;;;;;;8.37;7.50;;;;;;;3.03;62.27;95186.81;5001159;28;20229;-70
2023/12/05 05:36:13;;;;;;;9.30;8.30;;;;;;;2.41;64.77;95200.38;5004362;28;20230;-72
2023/12/05 05:38:38;;;;;;;10.03;8.23;;;;;;;2.55;64.50;95192.53;5007876;28;20190;-70
2023/12/05 05:41:06;;;;;;;9.83;8.43;;;;;;;2.74;63.77;95186.97;5003428;28;20207;-71
2023/12/05 05:43:31;;;;;;;9.43;8.43;;;;;;;2.92;63.25;95200.53;4991156;28;20288;-70
2023/12/05 05:45:57;;;;;;;9.63;8.50;;;;;;;2.91;63.42;95185.03;4999148;28;20251;-71
2023/12/05 05:48:22;;;;;;;9.87;8.70;;;;;;;2.75;63.92;95180.00;5005520;28;20223;-71
2023/12/05 05:50:48;;;;;;;10.93;8.13;;;;;;;2.86;63.94;95177.53;4999652;28;20274;-70
2023/12/05 05:53:14;;;;;;;9.73;8.57;;;;;;;2.99;63.88;95193.13;5006895;28;20194;-68
2023/12/05 05:55:39;;;;;;;9.73;8.73;;;;;;;3.03;63.80;95181.63;5006186;28;20286;-72
2023/12/05 05:58:05;;;;;;;11.00;9.30;;;;;;;3.19;63.25;95176.25;5004370;28;20225;-72
2023/12/05 06:00:30;;;;;;;11.37;8.00;;;;;;;3.06;63.44;95158.03;5001249;28;20409;-72
2023/12/05 06:02:57;;;;;;;12.93;8.63;;;;;;;3.02;63.54;95170.41;4999196;28;20341;-72
2023/12/05 06:05:24;;;;;;;9.53;7.73;;;;;;;3.20;62.93;95172.69;5005717;28;20233;-72
2023/12/05 06:07:50;;;;;;;11.80;7.43;;;;;;;3.13;62.78;95176.63;5009272;28;20225;-73
2023/12/05 06:10:16;;;;;;;10.63;7.77;;;;;;;3.13;63.11;95154.09;5005522;28;20212;-72
2023/12/05 06:12:42;;;;;;;11.57;7.90;;;;;;;3.16;62.58;95155.66;5005198;28;20227;-77
2023/12/05 06:15:07;;;;;;;9.70;8.13;;;;;;;3.13;62.58;95153.25;5012434;28;20234;-73
2023/12/05 06:17:33;;;;;;;10.23;7.73;;;;;;;3.26;62.21;95143.69;5002538;28;20191;-76
2023/12/05 06:19:58;;;;;;;9.77;8.20;;;;;;;3.27;62.08;95147.97;4989503;28;20312;-69
2023/12/05 06:22:24;;;;;;;10.33;8.20;;;;;;;3.21;61.73;95151.81;4999515;28;20215;-69
2023/12/05 06:24:50;;;;;;;9.33;7.47;;;;;;;3.26;61.82;95141.94;5004500;28;20229;-74
2023/12/05 06:27:15;;;;;;;11.80;8.73;;;;;;;3.15;61.78;95133.19;5004000;28;20242;-74
2023/12/05 06:29:41;;;;;;;16.13;9.27;;;;;;;2.94;62.59;95127.66;5005808;28;20276;-74
2023/12/05 06:32:06;;;;;;;14.47;10.30;;;;;;;3.14;61.89;95144.53;5006476;28;20199;-73
2023/12/05 06:34:32;;;;;;;9.00;7.90;;;;;;;3.22;61.63;95147.44;5004535;28;20234;-72
2023/12/05 06:36:58;;;;;;;10.63;8.07;;;;;;;3.23;61.52;95147.31;5004858;28;20227;-74
2023/12/05 06:39:23;;;;;;;11.33;8.07;;;;;;;3.30;61.27;95153.78;5008155;28;20261;-73
2023/12/05 06:41:49;;;;;;;14.00;9.33;;;;;;;3.40;61.00;95150.56;5008443;28;20215;-73
2023/12/05 06:44:14;;;;;;;10.07;8.53;;;;;;;3.09;61.91;95144.84;5010438;28;20218;-75
2023/12/05 06:46:40;;;;;;;16.60;9.43;;;;;;;2.94;62.67;95154.50;5012691;28;20239;-76
2023/12/05 06:49:05;;;;;;;13.13;8.83;;;;;;;3.03;62.63;95142.66;5007162;28;20230;-76
2023/12/05 06:51:31;;;;;;;17.43;10.00;;;;;;;2.83;63.60;95130.97;5012055;28;20220;-74
2023/12/05 06:53:56;;;;;;;14.60;9.97;;;;;;;3.11;63.21;95139.53;5003641;28;20219;-73
2023/12/05 06:56:22;;;;;;;12.10;9.30;;;;;;;3.24;62.41;95135.19;5008794;28;20210;-75
2023/12/05 06:58:47;;;;;;;10.67;9.20;;;;;;;3.08;63.05;95149.19;5008821;28;20229;-69
2023/12/05 07:01:12;;;;;;;12.90;9.63;;;;;;;3.28;62.33;95157.41;5007547;28;20226;-70
2023/12/05 07:03:38;;;;;;;17.33;9.57;;;;;;;3.26;62.18;95148.88;5008677;28;20273;-71
2023/12/05 07:06:05;;;;;;;12.47;9.80;;;;;;;3.40;61.92;95140.16;5007846;28;20226;-70
2023/12/05 07:08:30;;;;;;;11.87;9.60;;;;;;;3.41;61.45;95131.41;5005247;28;20194;-68
2023/12/05 07:10:56;;;;;;;11.43;9.80;;;;;;;3.45;61.48;95132.88;5006749;28;20284;-73
2023/12/05 07:13:21;;;;;;;15.40;10.00;;;;;;;3.45;61.58;95119.88;5009574;28;20215;-76
2023/12/05 07:15:47;;;;;;;15.03;9.93;;;;;;;3.58;60.91;95106.84;5002488;28;20225;-72
2023/12/05 07:18:12;;;;;;;14.80;10.20;;;;;;;3.59;61.06;95111.13;4993106;28;20235;-74
2023/12/05 07:20:38;;;;;;;12.43;9.70;;;;;;;3.69;60.82;95105.19;5004357;28;20656;-69
2023/12/05 07:23:03;;;;;;;16.97;9.43;;;;;;;3.42;61.35;95110.53;5006516;28;20186;-70
2023/12/05 07:25:29;;;;;;;14.33;10.17;;;;;;;3.63;60.87;95104.75;5003856;28;20223;-69
2023/12/05 07:27:54;;;;;;;17.30;10.23;;;;;;;3.80;60.44;95098.38;4999691;28;20219;-68
2023/12/05 07:30:20;;;;;;;13.77;9.43;;;;;;;3.79;60.53;95100.13;5007495;28;20238;-68
2023/12/05 07:32:45;;;;;;;18.30;11.17;;;;;;;3.79;60.71;95104.50;5007510;28;20187;-69
2023/12/05 07:35:11;;;;;;;15.00;10.03;;;;;;;3.74;60.44;95102.22;5004224;28;20176;-68
2023/12/05 07:37:36;;;;;;;14.30;10.37;;;;;;;3.72;60.58;95110.16;5005130;28;20218;-69
2023/12/05 07:40:03;;;;;;;15.50;11.23;;;;;;;3.88;59.95;95094.28;5009173;28;20281;-70
2023/12/05 07:42:29;;;;;;;17.57;11.27;;;;;;;3.92;60.20;95092.28;5004275;28;20251;-71
2023/12/05 07:44:54;;;;;;;14.63;11.20;;;;;;;3.93;60.08;95099.19;5007664;28;20218;-70
2023/12/05 07:47:20;;;;;;;13.93;10.73;;;;;;;3.65;60.92;95100.28;5011088;28;20262;-69
2023/12/05 07:49:45;;;;;;;15.17;10.23;;;;;;;3.66;61.04;95101.94;5001901;28;20226;-75
2023/12/05 07:52:11;;;;;;;13.77;10.23;;;;;;;3.83;60.63;95105.97;5007000;28;20225;-75
2023/12/05 07:54:37;;;;;;;11.63;8.63;;;;;;;3.94;60.19;95114.66;4999570;28;20266;-76
2023/12/05 07:57:03;;;;;;;14.77;9.27;;;;;;;3.77;60.23;95117.66;5004361;28;20218;-74
2023/12/05 07:59:29;;;;;;;13.17;9.70;;;;;;;3.64;60.68;95122.03;5011170;28;20190;-75
2023/12/05 08:01:54;;;;;;;12.33;10.73;;;;;;;3.59;61.14;95111.94;5003045;28;20219;-72
2023/12/05 08:04:20;;;;;;;12.43;9.23;;;;;;;3.91;60.70;95120.09;5009364;28;20262;-72
2023/12/05 08:06:45;;;;;;;11.37;9.40;;;;;;;4.02;60.07;95115.91;5008070;28;20238;-73
2023/12/05 08:09:11;;;;;;;14.93;9.87;;;;;;;3.94;60.97;95119.88;5006863;28;20222;-70
2023/12/05 08:11:38;;;;;;;12.50;8.23;;;;;;;3.89;60.37;95132.38;5008345;28;20221;-73
2023/12/05 08:14:03;;;;;;;10.87;8.43;;;;;;;3.74;60.80;95129.09;4999865;28;20187;-74
2023/12/05 08:16:28;;;;;;;14.13;10.47;;;;;;;4.04;60.42;95138.28;5005901;28;20229;-74
2023/12/05 08:18:54;;;;;;;13.70;9.67;;;;;;;4.10;60.26;95139.59;5001542;28;20222;-73
2023/12/05 08:21:20;;;;;;;14.37;10.70;;;;;;;3.93;60.70;95136.44;5007250;28;20231;-73
2023/12/05 08:23:45;;;;;;;15.70;10.77;;;;;;;4.06;60.75;95140.75;4987182;28;20195;-74
2023/12/05 08:26:11;;;;;;;18.77;10.97;;;;;;;4.20;60.00;95125.00;5003677;28;20175;-73
2023/12/05 08:28:37;;;;;;;17.93;12.93;;;;;;;4.25;60.14;95122.91;5003109;28;20219;-74
2023/12/05 08:31:03;;;;;;;13.37;10.20;;;;;;;4.36;59.95;95112.53;5006737;28;20203;-71
2023/12/05 08:33:28;;;;;;;13.73;10.00;;;;;;;4.37;59.43;95116.78;4994056;28;20230;-68
2023/12/05 08:35:54;;;;;;;13.87;10.70;;;;;;;4.27;59.77;95113.19;4999715;28;20242;-68
2023/12/05 08:38:20;;;;;;;14.83;10.23;;;;;;;4.37;59.91;95122.00;5005914;28;20317;-71
2023/12/05 08:40:45;;;;;;;15.83;10.50;;;;;;;4.33;59.97;95117.97;5003550;28;20223;-77
2023/12/05 08:43:10;;;;;;;14.33;10.13;;;;;;;4.35;60.37;95118.66;5003647;28;20234;-65
2023/12/05 08:45:36;;;;;;;15.20;9.90;;;;;;;4.37;60.06;95114.19;5003429;28;20284;-68
2023/12/05 08:48:01;;;;;;;13.27;10.23;;;;;;;4.60;59.50;95120.31;5008659;28;20223;-69
2023/12/05 08:50:27;;;;;;;13.90;10.53;;;;;;;4.69;59.52;95129.22;5003243;28;20187;-67
2023/12/05 08:52:52;;;;;;;14.87;10.57;;;;;;;4.78;59.19;95128.53;5008433;28;20215;-73
2023/12/05 08:55:18;;;;;;;11.90;10.60;;;;;;;4.73;59.08;95119.41;5000861;28;20231;-68
2023/12/05 08:57:43;;;;;;;15.20;10.30;;;;;;;4.54;59.47;95104.28;5003611;28;20226;-71
2023/12/05 09:00:09;;;;;;;16.00;10.17;;;;;;;4.86;58.87;95096.69;5003978;28;20230;-78
2023/12/05 09:02:35;;;;;;;16.53;10.07;;;;;;;4.89;58.20;95093.03;5011275;28;20217;-74
2023/12/05 09:05:01;;;;;;;13.47;11.03;;;;;;;4.85;58.59;95090.66;5002333;28;20183;-76
2023/12/05 09:07:27;;;;;;;15.47;11.30;;;;;;;4.88;58.73;95076.56;5001601;28;20216;-71
2023/12/05 09:09:52;;;;;;;15.30;10.93;;;;;;;5.07;58.66;95076.84;5008779;28;20230;-75
2023/12/05 09:12:18;;;;;;;11.73;10.27;;;;;;;5.37;57.95;95069.38;4997785;28;20228;-75
2023/12/05 09:14:43;;;;;;;15.10;10.53;;;;;;;5.39;57.80;95070.94;5000194;28;20187;-75
2023/12/05 09:17:10;;;;;;;13.37;10.67;;;;;;;5.36;57.85;95054.69;5006623;28;20187;-76
2023/12/05 09:19:35;;;;;;;12.37;10.27;;;;;;;5.45;57.71;95069.63;4996197;28;20327;-76
2023/12/05 09:22:02;;;;;;;13.17;10.80;;;;;;;5.36;57.69;95052.09;5009933;28;20325;-69
2023/12/05 09:24:28;;;;;;;17.53;11.77;;;;;;;5.41;57.67;95055.19;5010433;28;20302;-77
2023/12/05 09:26:53;;;;;;;19.67;10.97;;;;;;;5.24;57.53;95062.53;5009369;28;20302;-74
2023/12/05 09:29:19;;;;;;;13.83;10.53;;;;;;;5.04;58.32;95051.00;5004391;28;20183;-72
2023/12/05 09:31:44;;;;;;;16.53;10.37;;;;;;;5.22;57.92;95040.13;5009700;28;20219;-72
2023/12/05 09:34:10;;;;;;;15.00;10.67;;;;;;;5.20;57.88;95029.81;5003331;28;20223;-73
2023/12/05 09:36:35;;;;;;;16.37;10.40;;;;;;;5.29;57.91;95018.69;5007805;28;20268;-77
2023/12/05 09:39:02;;;;;;;16.83;10.63;;;;;;;5.27;57.78;95025.78;5006220;28;20235;-68
2023/12/05 09:41:28;;;;;;;16.00;11.20;;;;;;;5.01;58.55;95026.97;5001345;28;20274;-77
2023/12/05 09:43:54;;;;;;;15.97;10.50;;;;;;;5.17;58.17;95017.03;5002947;28;20216;-75
2023/12/05 09:46:25;;;;;;;14.53;10.03;;;;;;;5.57;57.51;95019.13;4987101;28;20231;-72
2023/12/05 09:48:55;;;;;;;14.50;11.77;;;;;;;5.48;57.40;95018.06;4989930;28;20242;-75
2023/12/05 09:51:22;;;;;;;16.00;11.10;;;;;;;5.57;57.40;95024.34;4993011;28;20222;-75
2023/12/05 09:53:48;;;;;;;14.63;11.70;;;;;;;5.53;57.69;95017.69;5003792;28;20290;-71
2023/12/05 09:56:14;;;;;;;13.67;10.57;;;;;;;5.52;57.70;95009.03;5008547;28;20174;-74
2023/12/05 09:58:46;;;;;;;12.67;10.53;;;;;;;5.57;57.21;94993.03;5002353;28;20227;-75
2023/12/05 10:01:16;;;;;;;15.73;10.47;;;;;;;5.66;57.60;95002.72;5021469;28;20222;-72
2023/12/05 10:03:44;;;;;;;18.47;11.33;;;;;;;5.90;56.93;94993.88;5009282;28;20222;-73
2023/12/05 10:06:11;;;;;;;18.80;12.77;;;;;;;5.92;56.27;94987.59;5007286;28;20219;-71
2023/12/05 10:08:37;;;;;;;18.90;11.47;;;;;;;5.63;56.79;94989.09;5006611;28;20293;-74
2023/12/05 10:11:04;;;;;;;19.87;12.60;;;;;;;5.66;57.30;94983.63;5003857;28;20315;-73
2023/12/05 10:13:31;;;;;;;16.47;12.67;;;;;;;5.65;57.31;94975.00;5002570;28;20306;-72
2023/12/05 10:16:00;;;;;;;16.73;11.90;;;;;;;5.78;56.68;94966.19;5012224;28;20315;-72
2023/12/05 10:18:27;;;;;;;18.70;11.90;;;;;;;5.86;56.46;94959.38;5004828;28;20290;-75
2023/12/05 10:20:53;;;;;;;14.73;11.57;;;;;;;5.93;56.47;94962.31;4990138;28;20211;-71
2023/12/05 10:23:18;;;;;;;22.67;11.80;;;;;;;5.44;57.63;94954.06;5007107;28;20183;-71
2023/12/05 10:25:44;;;;;;;22.90;12.97;;;;;;;5.66;57.71;94952.34;5009080;28;20215;-71
2023/12/05 10:28:10;;;;;;;19.87;12.70;;;;;;;5.81;57.05;94943.28;5004118;28;20219;-72
2023/12/05 10:30:39;;;;;;;17.03;11.83;;;;;;;6.21;56.54;94941.84;5009059;28;20281;-72
2023/12/05 10:33:12;;;;;;;19.33;11.10;;;;;;;6.33;55.97;94933.78;5006903;28;20218;-71
2023/12/05 10:35:38;;;;;;;18.27;12.03;;;;;;;6.31;55.67;94927.88;5006930;28;20179;-72
2023/12/05 10:38:07;;;;;;;16.90;11.97;;;;;;;6.30;55.83;94918.38;5011123;28;20242;-73
2023/12/05 10:40:52;;;;;;;14.23;10.43;;;;;;;6.31;55.96;94924.44;5006850;28;20223;-73
2023/12/05 10:43:22;;;;;;;18.40;10.97;;;;;;;6.34;55.86;94911.94;5003539;28;20306;-73
2023/12/05 10:45:48;;;;;;;17.13;9.53;;;;;;;6.58;55.63;94903.84;5007374;28;20258;-73
2023/12/05 10:48:15;;;;;;;13.87;9.73;;;;;;;6.39;56.02;94901.94;5013273;28;20246;-71
2023/12/05 10:50:41;;;;;;;14.83;11.00;;;;;;;6.42;56.00;94893.03;5004615;28;20190;-72
2023/12/05 10:53:06;;;;;;;16.30;10.63;;;;;;;6.50;55.52;94893.22;4992395;28;20263;-72
2023/12/05 10:55:33;;;;;;;14.10;10.13;;;;;;;6.31;55.76;94880.88;5010337;28;20241;-75
2023/12/05 10:58:00;;;;;;;15.73;9.73;;;;;;;6.40;55.76;94871.44;5002915;28;20281;-80
2023/12/05 11:00:28;;;;;;;15.57;10.10;;;;;;;6.47;56.03;94877.81;5006966;28;20223;-75
2023/12/05 11:02:55;;;;;;;15.67;10.10;;;;;;;6.48;56.31;94874.22;5005764;28;20198;-74
2023/12/05 11:05:21;;;;;;;17.67;11.13;;;;;;;6.29;56.54;94868.91;5008854;28;20298;-75
2023/12/05 11:07:47;;;;;;;14.73;9.83;;;;;;;6.27;56.74;94878.66;5000755;28;20219;-79
2023/12/05 11:10:12;;;;;;;14.70;9.70;;;;;;;6.03;57.53;94873.69;5011660;28;20222;-76
2023/12/05 11:12:39;;;;;;;14.77;9.37;;;;;;;5.92;57.77;94874.56;5005254;28;20223;-76
2023/12/05 11:15:07;;;;;;;16.07;8.73;;;;;;;6.21;57.43;94876.56;5008350;28;20223;-74
2023/12/05 11:17:42;;;;;;;16.70;10.37;;;;;;;6.28;57.40;94875.06;5005388;28;20187;-78
2023/12/05 11:20:23;;;;;;;20.27;9.83;;;;;;;6.38;56.75;94866.31;5005470;28;20218;-75
2023/12/05 11:23:09;;;;;;;12.43;9.77;;;;;;;6.52;56.68;94859.09;5017192;28;20273;-74
2023/12/05 11:25:50;;;;;;;16.60;10.90;;;;;;;6.49;56.67;94857.56;5008946;28;20226;-76
2023/12/05 11:28:49;;;;;;;12.40;8.60;;;;;;;6.98;55.90;94861.22;5006277;28;20226;-75
2023/12/05 11:31:44;;;;;;;10.23;7.87;;;;;;;7.02;55.61;94846.91;5007838;28;20294;-71